sensor_id;sensor_type;location;lat;lon;timestamp;P1;durP1;ratioP1;P2;durP2;ratioP2
5499;SDS011;2772;42.700;23.304;2023-05-10T00:01:10;6.20;;;5.70;;
5499;SDS011;2772;42.700;23.304;2023-05-10T00:03:37;7.60;;;5.17;;
5499;SDS011;2772;42.700;23.304;2023-05-10T00:06:03;7.13;;;5.10;;
5499;SDS011;2772;42.700;23.304;2023-05-10T00:08:32;6.03;;;5.40;;
5499;SDS011;2772;42.700;23.304;2023-05-10T00:10:58;5.33;;;4.90;;
5499;SDS011;2772;42.700;23.304;2023-05-10T00:13:25;5.70;;;5.20;;
5499;SDS011;2772;42.700;23.304;2023-05-10T00:15:52;6.33;;;5.77;;
5499;SDS011;2772;42.700;23.304;2023-05-10T00:18:19;6.37;;;5.77;;
5499;SDS011;2772;42.700;23.304;2023-05-10T00:20:45;6.43;;;5.83;;
5499;SDS011;2772;42.700;23.304;2023-05-10T00:23:13;7.13;;;6.37;;
5499;SDS011;2772;42.700;23.304;2023-05-10T00:25:42;8.40;;;6.40;;
5499;SDS011;2772;42.700;23.304;2023-05-10T00:28:08;10.30;;;6.63;;
5499;SDS011;2772;42.700;23.304;2023-05-10T00:30:35;8.10;;;7.03;;
5499;SDS011;2772;42.700;23.304;2023-05-10T00:33:02;8.93;;;7.83;;
5499;SDS011;2772;42.700;23.304;2023-05-10T00:35:29;8.30;;;7.50;;
5499;SDS011;2772;42.700;23.304;2023-05-10T00:37:55;7.70;;;6.90;;
5499;SDS011;2772;42.700;23.304;2023-05-10T00:40:22;7.90;;;6.90;;
5499;SDS011;2772;42.700;23.304;2023-05-10T00:42:50;7.80;;;7.10;;
5499;SDS011;2772;42.700;23.304;2023-05-10T00:45:17;9.33;;;7.50;;
5499;SDS011;2772;42.700;23.304;2023-05-10T00:47:44;8.20;;;7.30;;
5499;SDS011;2772;42.700;23.304;2023-05-10T00:50:11;7.80;;;7.00;;
5499;SDS011;2772;42.700;23.304;2023-05-10T00:52:37;11.80;;;8.27;;
5499;SDS011;2772;42.700;23.304;2023-05-10T00:55:05;8.20;;;7.50;;
5499;SDS011;2772;42.700;23.304;2023-05-10T00:57:33;8.60;;;7.40;;
5499;SDS011;2772;42.700;23.304;2023-05-10T01:00:01;9.57;;;8.53;;
5499;SDS011;2772;42.700;23.304;2023-05-10T01:02:29;8.83;;;7.93;;
5499;SDS011;2772;42.700;23.304;2023-05-10T01:04:56;8.47;;;7.57;;
5499;SDS011;2772;42.700;23.304;2023-05-10T01:07:23;9.00;;;8.07;;
5499;SDS011;2772;42.700;23.304;2023-05-10T01:09:49;9.83;;;8.83;;
5499;SDS011;2772;42.700;23.304;2023-05-10T01:12:16;8.50;;;7.70;;
5499;SDS011;2772;42.700;23.304;2023-05-10T01:14:43;9.80;;;8.57;;
5499;SDS011;2772;42.700;23.304;2023-05-10T01:17:11;9.53;;;8.53;;
5499;SDS011;2772;42.700;23.304;2023-05-10T01:19:39;11.97;;;9.33;;
5499;SDS011;2772;42.700;23.304;2023-05-10T01:22:10;10.10;;;7.80;;
5499;SDS011;2772;42.700;23.304;2023-05-10T01:28:07;10.70;;;8.87;;
5499;SDS011;2772;42.700;23.304;2023-05-10T01:31:12;8.97;;;8.07;;
5499;SDS011;2772;42.700;23.304;2023-05-10T01:34:00;7.90;;;7.20;;
5499;SDS011;2772;42.700;23.304;2023-05-10T01:36:32;8.40;;;7.50;;
5499;SDS011;2772;42.700;23.304;2023-05-10T01:39:15;9.53;;;7.87;;
5499;SDS011;2772;42.700;23.304;2023-05-10T01:41:48;8.67;;;7.77;;
5499;SDS011;2772;42.700;23.304;2023-05-10T01:44:20;7.50;;;6.80;;
5499;SDS011;2772;42.700;23.304;2023-05-10T01:46:56;7.83;;;7.10;;
5499;SDS011;2772;42.700;23.304;2023-05-10T01:49:29;8.23;;;7.43;;
5499;SDS011;2772;42.700;23.304;2023-05-10T01:51:59;7.77;;;6.97;;
5499;SDS011;2772;42.700;23.304;2023-05-10T01:54:30;7.77;;;7.00;;
5499;SDS011;2772;42.700;23.304;2023-05-10T01:57:00;8.80;;;6.70;;
5499;SDS011;2772;42.700;23.304;2023-05-10T01:59:31;7.47;;;6.77;;
5499;SDS011;2772;42.700;23.304;2023-05-10T02:02:04;12.33;;;7.70;;
5499;SDS011;2772;42.700;23.304;2023-05-10T02:04:33;6.97;;;6.37;;
5499;SDS011;2772;42.700;23.304;2023-05-10T02:07:03;7.63;;;6.93;;
5499;SDS011;2772;42.700;23.304;2023-05-10T02:09:31;7.37;;;6.67;;
5499;SDS011;2772;42.700;23.304;2023-05-10T02:11:59;7.20;;;6.50;;
5499;SDS011;2772;42.700;23.304;2023-05-10T02:14:30;6.60;;;6.10;;
5499;SDS011;2772;42.700;23.304;2023-05-10T02:17:00;6.63;;;6.03;;
5499;SDS011;2772;42.700;23.304;2023-05-10T02:19:30;7.33;;;6.63;;
5499;SDS011;2772;42.700;23.304;2023-05-10T02:21:59;8.60;;;5.70;;
5499;SDS011;2772;42.700;23.304;2023-05-10T02:24:28;5.90;;;5.40;;
5499;SDS011;2772;42.700;23.304;2023-05-10T02:26:55;6.27;;;5.67;;
5499;SDS011;2772;42.700;23.304;2023-05-10T02:29:23;5.67;;;5.27;;
5499;SDS011;2772;42.700;23.304;2023-05-10T02:31:54;8.43;;;5.40;;
5499;SDS011;2772;42.700;23.304;2023-05-10T02:34:22;6.30;;;5.63;;
5499;SDS011;2772;42.700;23.304;2023-05-10T02:36:51;5.97;;;5.40;;
5499;SDS011;2772;42.700;23.304;2023-05-10T02:39:20;8.37;;;5.93;;
5499;SDS011;2772;42.700;23.304;2023-05-10T02:41:48;5.97;;;5.40;;
5499;SDS011;2772;42.700;23.304;2023-05-10T02:44:17;6.50;;;5.90;;
5499;SDS011;2772;42.700;23.304;2023-05-10T02:46:45;5.90;;;5.40;;
5499;SDS011;2772;42.700;23.304;2023-05-10T02:49:13;6.43;;;5.57;;
5499;SDS011;2772;42.700;23.304;2023-05-10T02:51:40;6.10;;;5.10;;
5499;SDS011;2772;42.700;23.304;2023-05-10T02:54:10;8.40;;;5.77;;
5499;SDS011;2772;42.700;23.304;2023-05-10T02:56:42;6.43;;;5.27;;
5499;SDS011;2772;42.700;23.304;2023-05-10T02:59:13;5.30;;;4.77;;
5499;SDS011;2772;42.700;23.304;2023-05-10T03:01:40;6.30;;;5.10;;
5499;SDS011;2772;42.700;23.304;2023-05-10T03:04:07;5.50;;;5.03;;
5499;SDS011;2772;42.700;23.304;2023-05-10T03:06:34;5.77;;;5.20;;
5499;SDS011;2772;42.700;23.304;2023-05-10T03:09:01;5.53;;;5.13;;
5499;SDS011;2772;42.700;23.304;2023-05-10T03:11:32;7.00;;;5.23;;
5499;SDS011;2772;42.700;23.304;2023-05-10T03:14:13;6.80;;;4.77;;
5499;SDS011;2772;42.700;23.304;2023-05-10T03:16:55;6.83;;;5.10;;
5499;SDS011;2772;42.700;23.304;2023-05-10T03:19:27;6.47;;;5.40;;
5499;SDS011;2772;42.700;23.304;2023-05-10T03:21:59;5.40;;;4.90;;
5499;SDS011;2772;42.700;23.304;2023-05-10T03:24:31;5.87;;;5.30;;
5499;SDS011;2772;42.700;23.304;2023-05-10T03:27:00;5.00;;;4.50;;
5499;SDS011;2772;42.700;23.304;2023-05-10T03:29:30;6.00;;;5.40;;
5499;SDS011;2772;42.700;23.304;2023-05-10T03:31:58;6.07;;;5.57;;
5499;SDS011;2772;42.700;23.304;2023-05-10T03:34:25;7.50;;;5.33;;
5499;SDS011;2772;42.700;23.304;2023-05-10T03:36:52;5.70;;;5.20;;
5499;SDS011;2772;42.700;23.304;2023-05-10T03:39:19;11.63;;;5.90;;
5499;SDS011;2772;42.700;23.304;2023-05-10T03:41:46;5.97;;;5.40;;
5499;SDS011;2772;42.700;23.304;2023-05-10T03:44:13;10.67;;;5.40;;
5499;SDS011;2772;42.700;23.304;2023-05-10T03:46:41;8.83;;;5.20;;
5499;SDS011;2772;42.700;23.304;2023-05-10T03:49:07;5.60;;;5.03;;
5499;SDS011;2772;42.700;23.304;2023-05-10T03:51:34;6.23;;;5.63;;
5499;SDS011;2772;42.700;23.304;2023-05-10T03:54:01;8.67;;;5.43;;
5499;SDS011;2772;42.700;23.304;2023-05-10T03:56:28;5.50;;;5.00;;
5499;SDS011;2772;42.700;23.304;2023-05-10T03:58:55;5.77;;;5.27;;
5499;SDS011;2772;42.700;23.304;2023-05-10T04:01:21;5.40;;;4.93;;
5499;SDS011;2772;42.700;23.304;2023-05-10T04:03:49;5.40;;;4.87;;
5499;SDS011;2772;42.700;23.304;2023-05-10T04:06:16;6.37;;;4.90;;
5499;SDS011;2772;42.700;23.304;2023-05-10T04:08:43;6.37;;;5.00;;
5499;SDS011;2772;42.700;23.304;2023-05-10T04:11:10;7.30;;;5.27;;
5499;SDS011;2772;42.700;23.304;2023-05-10T04:13:37;6.33;;;5.03;;
5499;SDS011;2772;42.700;23.304;2023-05-10T04:16:04;6.67;;;5.37;;
5499;SDS011;2772;42.700;23.304;2023-05-10T04:18:31;5.37;;;4.70;;
5499;SDS011;2772;42.700;23.304;2023-05-10T04:21:00;6.43;;;5.43;;
5499;SDS011;2772;42.700;23.304;2023-05-10T04:23:27;6.03;;;5.47;;
5499;SDS011;2772;42.700;23.304;2023-05-10T04:26:19;7.43;;;5.87;;
5499;SDS011;2772;42.700;23.304;2023-05-10T04:28:47;12.50;;;6.27;;
5499;SDS011;2772;42.700;23.304;2023-05-10T04:31:13;9.20;;;5.93;;
5499;SDS011;2772;42.700;23.304;2023-05-10T04:33:40;7.17;;;5.87;;
5499;SDS011;2772;42.700;23.304;2023-05-10T04:36:08;7.27;;;5.90;;
5499;SDS011;2772;42.700;23.304;2023-05-10T04:38:35;11.23;;;5.90;;
5499;SDS011;2772;42.700;23.304;2023-05-10T04:41:05;14.10;;;5.50;;
5499;SDS011;2772;42.700;23.304;2023-05-10T04:43:33;7.80;;;6.00;;
5499;SDS011;2772;42.700;23.304;2023-05-10T04:46:00;7.70;;;5.57;;
5499;SDS011;2772;42.700;23.304;2023-05-10T04:48:26;6.73;;;5.70;;
5499;SDS011;2772;42.700;23.304;2023-05-10T04:50:53;6.93;;;6.07;;
5499;SDS011;2772;42.700;23.304;2023-05-10T04:53:21;6.70;;;6.00;;
5499;SDS011;2772;42.700;23.304;2023-05-10T04:55:49;7.40;;;6.00;;
5499;SDS011;2772;42.700;23.304;2023-05-10T04:58:15;6.87;;;5.80;;
5499;SDS011;2772;42.700;23.304;2023-05-10T05:00:42;7.33;;;5.97;;
5499;SDS011;2772;42.700;23.304;2023-05-10T05:03:09;8.43;;;6.30;;
5499;SDS011;2772;42.700;23.304;2023-05-10T05:05:36;7.00;;;6.17;;
5499;SDS011;2772;42.700;23.304;2023-05-10T05:08:03;6.90;;;6.30;;
5499;SDS011;2772;42.700;23.304;2023-05-10T05:10:31;6.10;;;5.43;;
5499;SDS011;2772;42.700;23.304;2023-05-10T05:12:58;8.83;;;6.60;;
5499;SDS011;2772;42.700;23.304;2023-05-10T05:15:25;9.93;;;5.73;;
5499;SDS011;2772;42.700;23.304;2023-05-10T05:17:52;9.03;;;6.17;;
5499;SDS011;2772;42.700;23.304;2023-05-10T05:20:19;7.30;;;6.60;;
5499;SDS011;2772;42.700;23.304;2023-05-10T05:22:46;17.33;;;6.60;;
5499;SDS011;2772;42.700;23.304;2023-05-10T05:25:13;8.30;;;6.00;;
5499;SDS011;2772;42.700;23.304;2023-05-10T05:27:41;7.50;;;6.50;;
5499;SDS011;2772;42.700;23.304;2023-05-10T05:30:08;10.13;;;6.83;;
5499;SDS011;2772;42.700;23.304;2023-05-10T05:32:36;10.03;;;6.57;;
5499;SDS011;2772;42.700;23.304;2023-05-10T05:35:03;7.73;;;6.87;;
5499;SDS011;2772;42.700;23.304;2023-05-10T05:37:30;7.00;;;6.30;;
5499;SDS011;2772;42.700;23.304;2023-05-10T05:39:57;8.50;;;7.13;;
5499;SDS011;2772;42.700;23.304;2023-05-10T05:42:25;10.23;;;7.97;;
5499;SDS011;2772;42.700;23.304;2023-05-10T05:44:53;11.10;;;6.73;;
5499;SDS011;2772;42.700;23.304;2023-05-10T05:47:20;8.60;;;6.93;;
5499;SDS011;2772;42.700;23.304;2023-05-10T05:49:46;8.80;;;7.80;;
5499;SDS011;2772;42.700;23.304;2023-05-10T05:52:13;9.23;;;7.13;;
5499;SDS011;2772;42.700;23.304;2023-05-10T05:54:40;10.30;;;7.60;;
5499;SDS011;2772;42.700;23.304;2023-05-10T05:57:07;9.70;;;7.43;;
5499;SDS011;2772;42.700;23.304;2023-05-10T05:59:34;14.10;;;8.07;;
5499;SDS011;2772;42.700;23.304;2023-05-10T06:02:02;13.40;;;8.87;;
5499;SDS011;2772;42.700;23.304;2023-05-10T06:04:28;13.10;;;9.13;;
5499;SDS011;2772;42.700;23.304;2023-05-10T06:06:55;10.00;;;8.20;;
5499;SDS011;2772;42.700;23.304;2023-05-10T06:09:22;12.73;;;7.80;;
5499;SDS011;2772;42.700;23.304;2023-05-10T06:11:49;10.53;;;8.23;;
5499;SDS011;2772;42.700;23.304;2023-05-10T06:14:16;12.10;;;9.50;;
5499;SDS011;2772;42.700;23.304;2023-05-10T06:16:43;21.73;;;8.97;;
5499;SDS011;2772;42.700;23.304;2023-05-10T06:19:11;10.70;;;9.10;;
5499;SDS011;2772;42.700;23.304;2023-05-10T06:21:38;11.53;;;8.00;;
5499;SDS011;2772;42.700;23.304;2023-05-10T06:24:05;9.13;;;7.17;;
5499;SDS011;2772;42.700;23.304;2023-05-10T06:26:32;10.83;;;8.10;;
5499;SDS011;2772;42.700;23.304;2023-05-10T06:28:59;10.30;;;8.37;;
5499;SDS011;2772;42.700;23.304;2023-05-10T06:31:26;9.77;;;8.17;;
5499;SDS011;2772;42.700;23.304;2023-05-10T06:33:53;12.47;;;8.20;;
5499;SDS011;2772;42.700;23.304;2023-05-10T06:36:21;13.40;;;7.87;;
5499;SDS011;2772;42.700;23.304;2023-05-10T06:38:49;8.73;;;7.60;;
5499;SDS011;2772;42.700;23.304;2023-05-10T06:41:16;8.13;;;7.23;;
5499;SDS011;2772;42.700;23.304;2023-05-10T06:43:43;8.17;;;7.27;;
5499;SDS011;2772;42.700;23.304;2023-05-10T06:46:09;10.07;;;7.87;;
5499;SDS011;2772;42.700;23.304;2023-05-10T06:48:36;10.87;;;7.50;;
5499;SDS011;2772;42.700;23.304;2023-05-10T06:51:03;12.67;;;7.80;;
5499;SDS011;2772;42.700;23.304;2023-05-10T06:53:31;16.50;;;10.00;;
5499;SDS011;2772;42.700;23.304;2023-05-10T06:55:58;10.43;;;6.87;;
5499;SDS011;2772;42.700;23.304;2023-05-10T06:58:24;31.37;;;13.87;;
5499;SDS011;2772;42.700;23.304;2023-05-10T07:00:51;13.43;;;9.20;;
5499;SDS011;2772;42.700;23.304;2023-05-10T07:03:18;12.10;;;8.83;;
5499;SDS011;2772;42.700;23.304;2023-05-10T07:05:44;16.43;;;10.73;;
5499;SDS011;2772;42.700;23.304;2023-05-10T07:08:11;13.20;;;10.17;;
5499;SDS011;2772;42.700;23.304;2023-05-10T07:10:39;11.70;;;8.20;;
5499;SDS011;2772;42.700;23.304;2023-05-10T07:13:06;15.00;;;8.63;;
5499;SDS011;2772;42.700;23.304;2023-05-10T07:15:33;10.97;;;9.23;;
5499;SDS011;2772;42.700;23.304;2023-05-10T07:18:00;13.07;;;7.57;;
5499;SDS011;2772;42.700;23.304;2023-05-10T07:20:26;9.20;;;6.70;;
5499;SDS011;2772;42.700;23.304;2023-05-10T07:22:53;14.77;;;8.50;;
5499;SDS011;2772;42.700;23.304;2023-05-10T07:25:20;14.57;;;9.60;;
5499;SDS011;2772;42.700;23.304;2023-05-10T07:27:48;8.53;;;7.30;;
5499;SDS011;2772;42.700;23.304;2023-05-10T07:30:16;9.37;;;8.30;;
5499;SDS011;2772;42.700;23.304;2023-05-10T07:32:42;11.47;;;7.60;;
5499;SDS011;2772;42.700;23.304;2023-05-10T07:35:09;13.90;;;8.50;;
5499;SDS011;2772;42.700;23.304;2023-05-10T07:37:36;13.90;;;9.00;;
5499;SDS011;2772;42.700;23.304;2023-05-10T07:40:02;14.50;;;8.53;;
5499;SDS011;2772;42.700;23.304;2023-05-10T07:42:30;11.10;;;8.40;;
5499;SDS011;2772;42.700;23.304;2023-05-10T07:44:58;8.80;;;7.03;;
5499;SDS011;2772;42.700;23.304;2023-05-10T07:47:24;11.40;;;8.60;;
5499;SDS011;2772;42.700;23.304;2023-05-10T07:49:51;10.90;;;8.80;;
5499;SDS011;2772;42.700;23.304;2023-05-10T07:52:18;12.57;;;8.77;;
5499;SDS011;2772;42.700;23.304;2023-05-10T07:54:44;10.63;;;9.23;;
5499;SDS011;2772;42.700;23.304;2023-05-10T07:57:11;14.53;;;10.00;;
5499;SDS011;2772;42.700;23.304;2023-05-10T07:59:39;14.13;;;10.60;;
5499;SDS011;2772;42.700;23.304;2023-05-10T08:02:07;12.70;;;9.23;;
5499;SDS011;2772;42.700;23.304;2023-05-10T08:04:34;15.20;;;10.80;;
5499;SDS011;2772;42.700;23.304;2023-05-10T08:07:01;17.20;;;11.43;;
5499;SDS011;2772;42.700;23.304;2023-05-10T08:09:28;10.80;;;8.70;;
5499;SDS011;2772;42.700;23.304;2023-05-10T08:11:54;15.83;;;9.07;;
5499;SDS011;2772;42.700;23.304;2023-05-10T08:14:21;12.23;;;8.80;;
5499;SDS011;2772;42.700;23.304;2023-05-10T08:16:48;18.83;;;9.00;;
5499;SDS011;2772;42.700;23.304;2023-05-10T08:19:16;16.33;;;9.60;;
5499;SDS011;2772;42.700;23.304;2023-05-10T08:21:44;19.27;;;11.50;;
5499;SDS011;2772;42.700;23.304;2023-05-10T08:24:11;12.80;;;9.57;;
5499;SDS011;2772;42.700;23.304;2023-05-10T08:26:37;15.97;;;10.53;;
5499;SDS011;2772;42.700;23.304;2023-05-10T08:29:04;12.60;;;9.20;;
5499;SDS011;2772;42.700;23.304;2023-05-10T08:31:31;16.67;;;11.13;;
5499;SDS011;2772;42.700;23.304;2023-05-10T08:33:58;10.20;;;8.77;;
5499;SDS011;2772;42.700;23.304;2023-05-10T08:36:26;14.60;;;10.50;;
5499;SDS011;2772;42.700;23.304;2023-05-10T08:38:53;16.50;;;10.20;;
5499;SDS011;2772;42.700;23.304;2023-05-10T08:41:20;13.80;;;9.70;;
5499;SDS011;2772;42.700;23.304;2023-05-10T08:43:49;14.60;;;9.43;;
5499;SDS011;2772;42.700;23.304;2023-05-10T08:46:17;12.73;;;9.87;;
5499;SDS011;2772;42.700;23.304;2023-05-10T08:48:44;12.90;;;9.60;;
5499;SDS011;2772;42.700;23.304;2023-05-10T08:51:13;15.67;;;9.20;;
5499;SDS011;2772;42.700;23.304;2023-05-10T08:53:42;12.10;;;9.20;;
5499;SDS011;2772;42.700;23.304;2023-05-10T08:56:10;13.37;;;8.93;;
5499;SDS011;2772;42.700;23.304;2023-05-10T08:58:37;14.73;;;9.50;;
5499;SDS011;2772;42.700;23.304;2023-05-10T09:01:04;11.83;;;9.07;;
5499;SDS011;2772;42.700;23.304;2023-05-10T09:03:31;11.20;;;9.30;;
5499;SDS011;2772;42.700;23.304;2023-05-10T09:05:58;14.37;;;10.50;;
5499;SDS011;2772;42.700;23.304;2023-05-10T09:08:25;10.83;;;9.53;;
5499;SDS011;2772;42.700;23.304;2023-05-10T09:10:53;17.40;;;12.10;;
5499;SDS011;2772;42.700;23.304;2023-05-10T09:13:21;13.40;;;10.30;;
5499;SDS011;2772;42.700;23.304;2023-05-10T09:15:49;13.43;;;9.90;;
5499;SDS011;2772;42.700;23.304;2023-05-10T09:18:16;22.63;;;15.00;;
5499;SDS011;2772;42.700;23.304;2023-05-10T09:20:43;13.70;;;10.40;;
5499;SDS011;2772;42.700;23.304;2023-05-10T09:23:10;11.53;;;9.83;;
5499;SDS011;2772;42.700;23.304;2023-05-10T09:25:36;17.53;;;10.27;;
5499;SDS011;2772;42.700;23.304;2023-05-10T09:28:07;17.33;;;10.83;;
5499;SDS011;2772;42.700;23.304;2023-05-10T09:30:34;19.13;;;12.33;;
5499;SDS011;2772;42.700;23.304;2023-05-10T09:33:02;14.93;;;11.30;;
5499;SDS011;2772;42.700;23.304;2023-05-10T09:35:29;17.63;;;10.80;;
5499;SDS011;2772;42.700;23.304;2023-05-10T09:37:59;24.73;;;10.67;;
5499;SDS011;2772;42.700;23.304;2023-05-10T09:40:27;13.70;;;10.67;;
5499;SDS011;2772;42.700;23.304;2023-05-10T09:42:56;16.90;;;11.57;;
5499;SDS011;2772;42.700;23.304;2023-05-10T09:45:27;24.50;;;12.70;;
5499;SDS011;2772;42.700;23.304;2023-05-10T09:47:54;19.20;;;11.57;;
5499;SDS011;2772;42.700;23.304;2023-05-10T09:50:21;23.00;;;11.03;;
5499;SDS011;2772;42.700;23.304;2023-05-10T09:52:49;20.27;;;13.47;;
5499;SDS011;2772;42.700;23.304;2023-05-10T09:55:17;22.67;;;13.23;;
5499;SDS011;2772;42.700;23.304;2023-05-10T09:57:45;23.93;;;13.17;;
5499;SDS011;2772;42.700;23.304;2023-05-10T10:00:16;21.77;;;11.80;;
5499;SDS011;2772;42.700;23.304;2023-05-10T10:02:46;27.20;;;12.90;;
5499;SDS011;2772;42.700;23.304;2023-05-10T10:05:14;18.80;;;11.63;;
5499;SDS011;2772;42.700;23.304;2023-05-10T10:07:41;21.10;;;12.80;;
5499;SDS011;2772;42.700;23.304;2023-05-10T10:10:08;18.70;;;11.43;;
5499;SDS011;2772;42.700;23.304;2023-05-10T10:12:39;16.37;;;11.73;;
5499;SDS011;2772;42.700;23.304;2023-05-10T10:15:07;28.37;;;13.77;;
5499;SDS011;2772;42.700;23.304;2023-05-10T10:17:35;26.67;;;12.80;;
5499;SDS011;2772;42.700;23.304;2023-05-10T10:20:06;22.87;;;12.30;;
5499;SDS011;2772;42.700;23.304;2023-05-10T10:22:34;18.70;;;12.10;;
5499;SDS011;2772;42.700;23.304;2023-05-10T10:25:01;19.50;;;12.73;;
5499;SDS011;2772;42.700;23.304;2023-05-10T10:27:39;30.10;;;14.00;;
5499;SDS011;2772;42.700;23.304;2023-05-10T10:30:16;18.30;;;10.20;;
5499;SDS011;2772;42.700;23.304;2023-05-10T10:33:06;19.27;;;10.43;;
5499;SDS011;2772;42.700;23.304;2023-05-10T10:35:57;14.53;;;11.43;;
5499;SDS011;2772;42.700;23.304;2023-05-10T10:38:25;18.90;;;11.03;;
5499;SDS011;2772;42.700;23.304;2023-05-10T10:41:03;9.33;;;7.80;;
5499;SDS011;2772;42.700;23.304;2023-05-10T10:43:35;20.27;;;10.83;;
5499;SDS011;2772;42.700;23.304;2023-05-10T10:46:09;21.63;;;10.20;;
5499;SDS011;2772;42.700;23.304;2023-05-10T10:48:37;25.63;;;10.13;;
5499;SDS011;2772;42.700;23.304;2023-05-10T10:51:05;20.97;;;8.80;;
5499;SDS011;2772;42.700;23.304;2023-05-10T10:53:32;21.13;;;8.83;;
5499;SDS011;2772;42.700;23.304;2023-05-10T10:56:05;16.60;;;10.27;;
5499;SDS011;2772;42.700;23.304;2023-05-10T10:58:34;14.03;;;8.27;;
5499;SDS011;2772;42.700;23.304;2023-05-10T11:01:11;12.57;;;8.73;;
5499;SDS011;2772;42.700;23.304;2023-05-10T11:03:39;8.47;;;7.20;;
5499;SDS011;2772;42.700;23.304;2023-05-10T11:06:08;12.33;;;8.40;;
5499;SDS011;2772;42.700;23.304;2023-05-10T11:08:41;9.23;;;7.83;;
5499;SDS011;2772;42.700;23.304;2023-05-10T11:11:09;12.53;;;7.50;;
5499;SDS011;2772;42.700;23.304;2023-05-10T11:13:39;12.97;;;7.93;;
5499;SDS011;2772;42.700;23.304;2023-05-10T11:16:14;11.70;;;8.27;;
5499;SDS011;2772;42.700;23.304;2023-05-10T11:18:52;19.87;;;9.70;;
5499;SDS011;2772;42.700;23.304;2023-05-10T11:21:21;16.53;;;8.10;;
5499;SDS011;2772;42.700;23.304;2023-05-10T11:23:48;14.43;;;7.63;;
5499;SDS011;2772;42.700;23.304;2023-05-10T11:26:17;17.10;;;7.63;;
5499;SDS011;2772;42.700;23.304;2023-05-10T11:28:44;8.67;;;7.67;;
5499;SDS011;2772;42.700;23.304;2023-05-10T11:31:13;12.00;;;7.70;;
5499;SDS011;2772;42.700;23.304;2023-05-10T11:33:43;19.57;;;7.10;;
5499;SDS011;2772;42.700;23.304;2023-05-10T11:36:10;9.07;;;7.37;;
5499;SDS011;2772;42.700;23.304;2023-05-10T11:38:39;11.83;;;9.07;;
5499;SDS011;2772;42.700;23.304;2023-05-10T11:41:07;11.87;;;8.20;;
5499;SDS011;2772;42.700;23.304;2023-05-10T11:43:34;11.07;;;7.50;;
5499;SDS011;2772;42.700;23.304;2023-05-10T11:46:03;13.63;;;8.00;;
5499;SDS011;2772;42.700;23.304;2023-05-10T11:48:30;14.40;;;9.73;;
5499;SDS011;2772;42.700;23.304;2023-05-10T11:50:57;16.17;;;7.87;;
5499;SDS011;2772;42.700;23.304;2023-05-10T11:53:25;10.30;;;8.33;;
5499;SDS011;2772;42.700;23.304;2023-05-10T11:55:53;10.80;;;8.40;;
5499;SDS011;2772;42.700;23.304;2023-05-10T11:58:20;15.53;;;8.20;;
5499;SDS011;2772;42.700;23.304;2023-05-10T12:00:48;23.13;;;9.07;;
5499;SDS011;2772;42.700;23.304;2023-05-10T12:03:16;10.50;;;7.90;;
5499;SDS011;2772;42.700;23.304;2023-05-10T12:05:43;9.43;;;7.23;;
5499;SDS011;2772;42.700;23.304;2023-05-10T12:08:10;11.10;;;8.87;;
5499;SDS011;2772;42.700;23.304;2023-05-10T12:10:37;11.67;;;8.20;;
5499;SDS011;2772;42.700;23.304;2023-05-10T12:13:05;11.53;;;8.70;;
5499;SDS011;2772;42.700;23.304;2023-05-10T12:15:37;19.03;;;7.93;;
5499;SDS011;2772;42.700;23.304;2023-05-10T12:18:04;14.47;;;9.00;;
5499;SDS011;2772;42.700;23.304;2023-05-10T12:20:31;12.93;;;8.70;;
5499;SDS011;2772;42.700;23.304;2023-05-10T12:22:58;15.67;;;8.90;;
5499;SDS011;2772;42.700;23.304;2023-05-10T12:25:29;17.53;;;9.03;;
5499;SDS011;2772;42.700;23.304;2023-05-10T12:27:58;14.13;;;9.50;;
5499;SDS011;2772;42.700;23.304;2023-05-10T12:30:28;10.90;;;7.57;;
5499;SDS011;2772;42.700;23.304;2023-05-10T12:32:59;10.43;;;8.03;;
5499;SDS011;2772;42.700;23.304;2023-05-10T12:35:29;13.13;;;9.90;;
5499;SDS011;2772;42.700;23.304;2023-05-10T12:37:57;16.30;;;8.20;;
5499;SDS011;2772;42.700;23.304;2023-05-10T12:40:24;15.00;;;8.83;;
5499;SDS011;2772;42.700;23.304;2023-05-10T12:42:51;9.67;;;7.60;;
5499;SDS011;2772;42.700;23.304;2023-05-10T12:45:18;13.57;;;8.80;;
5499;SDS011;2772;42.700;23.304;2023-05-10T12:47:46;18.80;;;10.40;;
5499;SDS011;2772;42.700;23.304;2023-05-10T12:50:13;13.80;;;9.53;;
5499;SDS011;2772;42.700;23.304;2023-05-10T12:52:39;11.77;;;8.90;;
5499;SDS011;2772;42.700;23.304;2023-05-10T12:55:06;7.93;;;6.80;;
5499;SDS011;2772;42.700;23.304;2023-05-10T12:57:34;11.73;;;7.67;;
5499;SDS011;2772;42.700;23.304;2023-05-10T13:00:00;17.83;;;9.60;;
5499;SDS011;2772;42.700;23.304;2023-05-10T13:02:27;10.70;;;8.00;;
5499;SDS011;2772;42.700;23.304;2023-05-10T13:04:55;9.70;;;7.50;;
5499;SDS011;2772;42.700;23.304;2023-05-10T13:07:22;14.57;;;9.73;;
5499;SDS011;2772;42.700;23.304;2023-05-10T13:09:49;15.93;;;8.40;;
5499;SDS011;2772;42.700;23.304;2023-05-10T13:12:15;11.63;;;8.13;;
5499;SDS011;2772;42.700;23.304;2023-05-10T13:14:42;18.13;;;10.13;;
5499;SDS011;2772;42.700;23.304;2023-05-10T13:17:09;14.13;;;10.10;;
5499;SDS011;2772;42.700;23.304;2023-05-10T13:19:35;15.23;;;8.90;;
5499;SDS011;2772;42.700;23.304;2023-05-10T13:22:03;10.43;;;8.43;;
5499;SDS011;2772;42.700;23.304;2023-05-10T13:24:30;13.33;;;9.00;;
5499;SDS011;2772;42.700;23.304;2023-05-10T13:26:57;12.47;;;9.07;;
5499;SDS011;2772;42.700;23.304;2023-05-10T13:29:24;10.07;;;8.38;;
5499;SDS011;2772;42.700;23.304;2023-05-10T13:31:51;13.53;;;9.43;;
5499;SDS011;2772;42.700;23.304;2023-05-10T13:34:17;16.30;;;9.33;;
5499;SDS011;2772;42.700;23.304;2023-05-10T13:36:45;15.13;;;9.00;;
5499;SDS011;2772;42.700;23.304;2023-05-10T13:39:13;11.63;;;7.47;;
5499;SDS011;2772;42.700;23.304;2023-05-10T13:41:40;11.03;;;8.20;;
5499;SDS011;2772;42.700;23.304;2023-05-10T13:44:07;14.47;;;7.70;;
5499;SDS011;2772;42.700;23.304;2023-05-10T13:46:34;8.50;;;7.07;;
5499;SDS011;2772;42.700;23.304;2023-05-10T13:49:00;12.10;;;7.80;;
5499;SDS011;2772;42.700;23.304;2023-05-10T13:51:27;17.63;;;9.90;;
5499;SDS011;2772;42.700;23.304;2023-05-10T13:53:54;11.37;;;8.03;;
5499;SDS011;2772;42.700;23.304;2023-05-10T13:56:41;8.47;;;7.60;;
5499;SDS011;2772;42.700;23.304;2023-05-10T13:59:09;15.10;;;8.80;;
5499;SDS011;2772;42.700;23.304;2023-05-10T14:01:35;14.83;;;10.00;;
5499;SDS011;2772;42.700;23.304;2023-05-10T14:04:03;17.23;;;9.37;;
5499;SDS011;2772;42.700;23.304;2023-05-10T14:06:30;15.50;;;10.80;;
5499;SDS011;2772;42.700;23.304;2023-05-10T14:08:56;15.17;;;8.10;;
5499;SDS011;2772;42.700;23.304;2023-05-10T14:11:23;22.47;;;11.93;;
5499;SDS011;2772;42.700;23.304;2023-05-10T14:13:51;16.03;;;10.93;;
5499;SDS011;2772;42.700;23.304;2023-05-10T14:16:18;11.60;;;8.13;;
5499;SDS011;2772;42.700;23.304;2023-05-10T14:18:45;9.60;;;7.97;;
5499;SDS011;2772;42.700;23.304;2023-05-10T14:21:11;11.37;;;8.10;;
5499;SDS011;2772;42.700;23.304;2023-05-10T14:23:38;13.50;;;8.33;;
5499;SDS011;2772;42.700;23.304;2023-05-10T14:26:05;11.10;;;7.90;;
5499;SDS011;2772;42.700;23.304;2023-05-10T14:28:32;16.57;;;10.70;;
5499;SDS011;2772;42.700;23.304;2023-05-10T14:31:01;9.83;;;7.70;;
5499;SDS011;2772;42.700;23.304;2023-05-10T14:33:27;12.37;;;7.70;;
5499;SDS011;2772;42.700;23.304;2023-05-10T14:35:54;12.50;;;9.00;;
5499;SDS011;2772;42.700;23.304;2023-05-10T14:38:21;9.83;;;6.90;;
5499;SDS011;2772;42.700;23.304;2023-05-10T14:40:48;11.50;;;8.53;;
5499;SDS011;2772;42.700;23.304;2023-05-10T14:43:15;14.43;;;7.63;;
5499;SDS011;2772;42.700;23.304;2023-05-10T14:45:41;13.63;;;8.33;;
5499;SDS011;2772;42.700;23.304;2023-05-10T14:48:09;13.33;;;8.77;;
5499;SDS011;2772;42.700;23.304;2023-05-10T14:50:40;12.10;;;8.67;;
5499;SDS011;2772;42.700;23.304;2023-05-10T14:56:01;19.20;;;8.50;;
5499;SDS011;2772;42.700;23.304;2023-05-10T14:58:28;12.83;;;9.60;;
5499;SDS011;2772;42.700;23.304;2023-05-10T15:00:55;11.40;;;8.13;;
5499;SDS011;2772;42.700;23.304;2023-05-10T15:03:24;12.27;;;9.80;;